Time;durP1;ratioP1;P1;durP2;ratioP2;P2;SDS_P1;SDS_P2;PMS_P1;PMS_P2;Temp;Humidity;BMP_temperature;BMP_pressure;BME280_temperature;BME280_humidity;BME280_pressure;Samples;Min_cycle;Max_cycle;Signal;HPM_P1;HPM_P2
2023/05/22 00:00:53;;;;;;;30.63;21.20;;;16.90;99.90;;;;;;4972207;28;20530;-94
2023/05/22 00:03:19;;;;;;;27.98;18.85;;;16.90;99.90;;;;;;4963834;28;20038;-94
2023/05/22 00:05:47;;;;;;;31.70;21.00;;;16.90;99.90;;;;;;4970241;28;20030;-94
2023/05/22 00:08:12;;;;;;;31.85;20.52;;;16.90;99.90;;;;;;4975706;28;20022;-94
2023/05/22 00:10:38;;;;;;;29.50;21.52;;;16.80;99.90;;;;;;4972848;28;20044;-94
2023/05/22 00:13:04;;;;;;;28.90;20.20;;;16.80;99.90;;;;;;4988926;28;20029;-93
2023/05/22 00:15:30;;;;;;;32.17;20.52;;;16.80;99.90;;;;;;4974597;28;20038;-93
2023/05/22 00:17:55;;;;;;;37.95;21.63;;;16.70;99.90;;;;;;4974713;28;20479;-93
2023/05/22 00:20:22;;;;;;;29.40;21.50;;;16.70;99.90;;;;;;4977114;28;20033;-93
2023/05/22 00:22:48;;;;;;;31.92;21.63;;;16.70;99.90;;;;;;4965825;28;20100;-93
2023/05/22 00:25:17;;;;;;;32.90;21.02;;;16.70;99.90;;;;;;4976608;28;20520;-92
2023/05/22 00:27:43;;;;;;;32.22;21.17;;;16.70;99.90;;;;;;4986026;28;20118;-92
2023/05/22 00:30:09;;;;;;;34.72;22.75;;;16.70;99.90;;;;;;4970881;28;20125;-92
2023/05/22 00:32:34;;;;;;;28.40;20.60;;;16.60;99.90;;;;;;4977296;28;20030;-93
2023/05/22 00:35:00;;;;;;;30.58;21.85;;;16.60;99.90;;;;;;4984785;28;20525;-93
2023/05/22 00:37:26;;;;;;;33.15;21.70;;;16.60;99.90;;;;;;4974958;28;20018;-92
2023/05/22 00:39:51;;;;;;;34.13;21.95;;;16.60;99.90;;;;;;4970722;28;20037;-93
2023/05/22 00:42:17;;;;;;;32.55;22.42;;;16.60;99.90;;;;;;4976518;28;20031;-92
2023/05/22 00:44:43;;;;;;;33.90;21.98;;;16.50;99.90;;;;;;4963153;28;20031;-93
2023/05/22 00:47:08;;;;;;;33.90;23.58;;;16.50;99.90;;;;;;4978537;28;20061;-93
2023/05/22 00:49:34;;;;;;;36.63;24.48;;;16.50;99.90;;;;;;4985631;28;20038;-92
2023/05/22 00:52:00;;;;;;;34.78;24.27;;;16.40;99.90;;;;;;4975564;28;20033;-93
2023/05/22 00:54:26;;;;;;;42.10;27.73;;;16.40;99.90;;;;;;4970628;28;20049;-92
2023/05/22 00:56:51;;;;;;;39.40;24.58;;;16.40;99.90;;;;;;4969233;28;20023;-92
2023/05/22 00:59:18;;;;;;;38.00;24.92;;;16.30;99.90;;;;;;4967969;28;20066;-93
2023/05/22 01:01:43;;;;;;;38.08;26.40;;;16.30;99.90;;;;;;4972470;28;20080;-92
2023/05/22 01:04:11;;;;;;;37.90;26.00;;;16.30;99.90;;;;;;4970368;28;20443;-92
2023/05/22 01:06:37;;;;;;;38.33;25.40;;;16.30;99.90;;;;;;4973954;28;20023;-93
2023/05/22 01:09:03;;;;;;;40.95;26.55;;;16.30;99.90;;;;;;4963655;28;20030;-92
2023/05/22 01:11:57;;;;;;;36.38;24.70;;;16.20;99.90;;;;;;4975761;28;20471;-92
2023/05/22 01:14:29;;;;;;;47.22;25.23;;;16.30;99.90;;;;;;4961756;28;20039;-93
2023/05/22 01:17:13;;;;;;;38.87;25.10;;;16.20;99.90;;;;;;4974708;28;20030;-92
2023/05/22 01:20:04;;;;;;;40.08;24.95;;;16.20;99.90;;;;;;4957769;28;20290;-93
2023/05/22 01:23:05;;;;;;;38.67;24.93;;;16.20;99.90;;;;;;4964384;28;20038;-92
2023/05/22 01:25:34;;;;;;;31.38;22.75;;;16.10;99.90;;;;;;4977040;28;20042;-93
2023/05/22 01:28:24;;;;;;;39.40;26.38;;;16.10;99.90;;;;;;4961274;28;20039;-93
2023/05/22 01:31:07;;;;;;;37.28;24.83;;;16.00;99.90;;;;;;4977530;28;20022;-92
2023/05/22 01:33:37;;;;;;;;;;;16.00;99.90;;;;;;4968814;28;20462;-92
2023/05/22 01:36:06;;;;;;;41.00;25.60;;;15.90;99.90;;;;;;4970917;28;19917;-92
2023/05/22 01:38:33;;;;;;;38.35;25.80;;;15.90;99.90;;;;;;4972551;28;20092;-92
2023/05/22 01:40:59;;;;;;;40.28;26.40;;;15.80;99.90;;;;;;4973471;28;20089;-92
2023/05/22 01:43:26;;;;;;;41.97;26.60;;;15.70;99.90;;;;;;4973791;28;20040;-92
2023/05/22 01:45:51;;;;;;;41.45;27.10;;;15.70;99.90;;;;;;4972021;28;20022;-92
2023/05/22 01:48:17;;;;;;;42.40;27.80;;;15.70;99.90;;;;;;4970036;28;20038;-92
2023/05/22 01:50:44;;;;;;;39.50;26.90;;;15.60;99.90;;;;;;4975165;28;20037;-92
2023/05/22 01:53:29;;;;;;;43.08;27.73;;;15.60;99.90;;;;;;4978410;28;20475;-92
2023/05/22 01:56:04;;;;;;;49.28;29.40;;;15.50;99.90;;;;;;4987620;28;20035;-92
2023/05/22 01:58:40;;;;;;;44.70;29.70;;;15.50;99.90;;;;;;4973198;28;20029;-91
2023/05/22 02:01:08;;;;;;;42.50;28.05;;;15.40;99.90;;;;;;4976339;28;20057;-92
2023/05/22 02:03:35;;;;;;;42.15;28.35;;;15.40;99.90;;;;;;4970356;28;20085;-92
2023/05/22 02:06:06;;;;;;;40.95;27.73;;;15.40;99.90;;;;;;4977477;28;20105;-92
2023/05/22 02:08:34;;;;;;;42.22;28.10;;;15.40;99.90;;;;;;4977662;28;20037;-92
2023/05/22 02:11:01;;;;;;;44.08;28.90;;;15.40;99.90;;;;;;4973789;28;20018;-92
2023/05/22 02:13:27;;;;;;;37.83;27.83;;;15.30;99.90;;;;;;4976590;28;20030;-92
2023/05/22 02:15:54;;;;;;;41.00;28.63;;;15.20;99.90;;;;;;4983047;28;20363;-92
2023/05/22 02:18:25;;;;;;;39.25;26.77;;;15.20;99.90;;;;;;4976689;28;20030;-92
2023/05/22 02:20:51;;;;;;;39.92;27.17;;;15.20;99.90;;;;;;4973183;28;20035;-92
2023/05/22 02:23:16;;;;;;;35.15;26.23;;;15.20;99.90;;;;;;4985616;28;20554;-92
2023/05/22 02:25:42;;;;;;;42.83;28.48;;;15.20;99.90;;;;;;4976188;28;20522;-92
2023/05/22 02:28:07;;;;;;;43.33;27.13;;;15.10;99.90;;;;;;4966508;28;20027;-92
2023/05/22 02:30:33;;;;;;;37.25;27.00;;;15.10;99.90;;;;;;4985377;28;20038;-91
2023/05/22 02:32:59;;;;;;;38.30;27.00;;;15.00;99.90;;;;;;4977420;28;20029;-92
2023/05/22 02:35:24;;;;;;;44.00;27.63;;;15.00;99.90;;;;;;4976741;28;20056;-92
2023/05/22 02:37:50;;;;;;;37.25;27.55;;;14.90;99.90;;;;;;4971102;28;20023;-91
2023/05/22 02:40:16;;;;;;;44.03;28.33;;;14.90;99.90;;;;;;4974150;28;20408;-91
2023/05/22 02:42:41;;;;;;;44.85;28.33;;;15.00;99.90;;;;;;4965929;28;20045;-91
2023/05/22 02:45:07;;;;;;;43.17;27.40;;;15.00;99.90;;;;;;4973303;28;20022;-92
2023/05/22 02:47:33;;;;;;;40.03;27.70;;;14.90;99.90;;;;;;4973191;28;20113;-92
2023/05/22 02:49:58;;;;;;;44.75;29.05;;;14.90;99.90;;;;;;4975596;28;20435;-92
2023/05/22 02:52:24;;;;;;;47.00;29.67;;;14.80;99.90;;;;;;4977528;28;20113;-91
2023/05/22 02:54:50;;;;;;;40.83;28.38;;;14.80;99.90;;;;;;4975101;28;20038;-93
2023/05/22 02:57:15;;;;;;;44.00;28.52;;;14.80;99.90;;;;;;4976107;28;20368;-92
2023/05/22 02:59:41;;;;;;;37.25;26.27;;;14.80;99.90;;;;;;4973476;28;20035;-91
2023/05/22 03:02:06;;;;;;;41.53;28.00;;;14.80;99.90;;;;;;4973205;28;20037;-92
2023/05/22 03:04:32;;;;;;;49.50;29.85;;;14.80;99.90;;;;;;4974416;28;20040;-93
2023/05/22 03:06:58;;;;;;;45.33;28.90;;;14.70;99.90;;;;;;4975261;28;20466;-92
2023/05/22 03:09:24;;;;;;;44.33;28.58;;;14.80;99.90;;;;;;4975972;28;20101;-93
2023/05/22 03:11:50;;;;;;;45.45;29.60;;;14.80;99.90;;;;;;4984279;28;20629;-92
2023/05/22 03:14:15;;;;;;;43.95;31.63;;;14.70;99.90;;;;;;4979594;28;20042;-92
2023/05/22 03:16:41;;;;;;;40.60;29.73;;;14.70;99.90;;;;;;4973734;28;20522;-92
2023/05/22 03:19:11;;;;;;;44.00;29.23;;;14.70;99.90;;;;;;4974731;28;20030;-92
2023/05/22 03:21:37;;;;;;;41.78;29.65;;;14.70;99.90;;;;;;4971099;28;20026;-92
2023/05/22 03:24:03;;;;;;;46.58;30.45;;;14.70;99.90;;;;;;4978921;28;20026;-92
2023/05/22 03:26:29;;;;;;;49.05;30.05;;;14.70;99.90;;;;;;4976443;28;20113;-92
2023/05/22 03:28:56;;;;;;;69.95;33.75;;;14.60;99.90;;;;;;4959343;28;20467;-92
2023/05/22 03:31:23;;;;;;;64.07;33.05;;;14.70;99.90;;;;;;4975448;28;20030;-91
2023/05/22 03:33:49;;;;;;;90.40;35.67;;;14.70;99.90;;;;;;4968972;28;20521;-93
2023/05/22 03:36:15;;;;;;;87.55;32.00;;;14.70;99.90;;;;;;4948165;29;20024;-93
2023/05/22 03:38:40;;;;;;;82.85;33.63;;;14.70;99.90;;;;;;4945700;29;20034;-92
2023/05/22 03:41:06;;;;;;;90.55;36.67;;;14.70;99.90;;;;;;4941398;29;20032;-92
2023/05/22 03:43:32;;;;;;;75.30;34.15;;;14.70;99.90;;;;;;4952015;28;20548;-92
2023/05/22 03:45:58;;;;;;;102.63;31.65;;;14.70;99.90;;;;;;4944364;29;20118;-92
2023/05/22 03:48:23;;;;;;;77.00;32.28;;;14.70;99.90;;;;;;4950741;29;20031;-92
2023/05/22 03:50:49;;;;;;;65.80;32.28;;;14.70;99.90;;;;;;4949775;28;20060;-92
2023/05/22 03:53:15;;;;;;;80.85;32.78;;;14.80;99.90;;;;;;4952679;28;20027;-91
2023/05/22 03:55:41;;;;;;;76.35;32.35;;;14.80;99.90;;;;;;4959643;28;20028;-91
2023/05/22 03:58:06;;;;;;;61.45;35.72;;;14.70;99.90;;;;;;4945654;28;20030;-92
2023/05/22 04:00:32;;;;;;;73.97;32.83;;;14.70;99.90;;;;;;4956079;28;20042;-91
2023/05/22 04:02:57;;;;;;;83.38;31.90;;;14.80;99.90;;;;;;4964820;28;20042;-91
2023/05/22 04:05:23;;;;;;;88.97;31.88;;;14.80;99.90;;;;;;4955954;28;20050;-91
2023/05/22 04:07:49;;;;;;;86.07;33.15;;;14.80;99.90;;;;;;4962045;28;20037;-91
2023/05/22 04:10:14;;;;;;;66.35;32.95;;;14.80;99.90;;;;;;4955249;28;20019;-92
2023/05/22 04:12:40;;;;;;;75.45;33.95;;;14.80;99.90;;;;;;4944032;28;20138;-92
2023/05/22 04:15:07;;;;;;;96.30;37.97;;;14.90;99.90;;;;;;4953352;28;20478;-92
2023/05/22 04:17:36;;;;;;;100.95;32.85;;;14.90;99.90;;;;;;4954819;28;20031;-91
2023/05/22 04:20:04;;;;;;;93.80;32.58;;;14.90;99.90;;;;;;4942098;28;20031;-92
2023/05/22 04:22:29;;;;;;;77.35;34.65;;;14.90;99.90;;;;;;4951213;28;20035;-92
2023/05/22 04:24:55;;;;;;;66.22;33.15;;;14.90;99.90;;;;;;4951613;28;20035;-93
2023/05/22 04:27:21;;;;;;;118.88;36.53;;;15.00;99.90;;;;;;4950977;28;20031;-92
2023/05/22 04:29:49;;;;;;;73.22;35.95;;;15.00;99.90;;;;;;4939971;29;20086;-92
2023/05/22 04:32:17;;;;;;;70.35;34.28;;;15.00;99.90;;;;;;4954689;28;20023;-92
2023/05/22 04:34:52;;;;;;;58.05;33.60;;;15.10;99.90;;;;;;4956727;28;20051;-92
2023/05/22 04:37:19;;;;;;;66.45;35.10;;;15.10;99.90;;;;;;4958162;28;20039;-91
2023/05/22 04:39:45;;;;;;;112.95;36.70;;;15.20;99.90;;;;;;4952653;28;20023;-91
2023/05/22 04:42:14;;;;;;;91.38;34.90;;;15.20;99.90;;;;;;4956804;28;20401;-91
2023/05/22 04:44:40;;;;;;;85.15;35.67;;;15.20;99.90;;;;;;4951420;28;20110;-91
2023/05/22 04:47:10;;;;;;;104.85;36.55;;;15.20;99.90;;;;;;4955199;28;20031;-92
2023/05/22 04:49:37;;;;;;;99.97;37.30;;;15.30;99.90;;;;;;4954498;28;20035;-92
2023/05/22 04:52:04;;;;;;;97.43;39.78;;;15.30;99.90;;;;;;4944796;28;20387;-92
2023/05/22 04:54:30;;;;;;;131.32;43.10;;;15.40;99.90;;;;;;4952950;28;20106;-91
2023/05/22 04:56:56;;;;;;;117.13;39.45;;;15.40;99.90;;;;;;4954563;28;20106;-92
2023/05/22 04:59:22;;;;;;;104.90;42.15;;;15.50;99.90;;;;;;4954175;28;20028;-92
2023/05/22 05:01:49;;;;;;;107.68;41.30;;;15.40;99.90;;;;;;4955152;28;20046;-92
2023/05/22 05:04:15;;;;;;;77.18;41.38;;;15.40;99.90;;;;;;4958545;28;20024;-92
2023/05/22 05:06:42;;;;;;;74.88;38.38;;;15.50;99.90;;;;;;4948773;28;20032;-92
2023/05/22 05:09:07;;;;;;;92.47;39.90;;;15.50;99.90;;;;;;4958767;28;20055;-92
2023/05/22 05:11:33;;;;;;;90.05;36.15;;;15.50;99.90;;;;;;4959231;28;20039;-92
2023/05/22 05:13:59;;;;;;;117.85;38.72;;;15.50;99.90;;;;;;4968154;28;20043;-91
2023/05/22 05:16:25;;;;;;;121.20;38.83;;;15.40;99.90;;;;;;4955674;28;20031;-91
2023/05/22 05:18:50;;;;;;;102.93;38.92;;;15.40;99.90;;;;;;4956415;28;20551;-91
2023/05/22 05:21:16;;;;;;;91.82;38.38;;;15.30;99.90;;;;;;4947761;28;20040;-91
2023/05/22 05:23:42;;;;;;;122.57;37.55;;;15.30;99.90;;;;;;4943299;28;20062;-92
2023/05/22 05:26:08;;;;;;;121.68;35.95;;;15.30;99.90;;;;;;4953389;28;20053;-91
2023/05/22 05:28:33;;;;;;;72.65;34.55;;;15.30;99.90;;;;;;4957633;28;20031;-90
2023/05/22 05:31:01;;;;;;;90.00;33.35;;;15.20;99.90;;;;;;4963146;28;20099;-92
2023/05/22 05:33:27;;;;;;;78.95;33.00;;;15.20;99.90;;;;;;4976255;28;20031;-92
2023/05/22 05:35:52;;;;;;;67.68;33.42;;;15.20;99.90;;;;;;4990536;28;20433;-92
2023/05/22 05:38:18;;;;;;;63.25;34.78;;;15.30;99.90;;;;;;4995909;28;20113;-92
2023/05/22 05:40:44;;;;;;;57.13;33.33;;;15.30;99.90;;;;;;4980635;28;20026;-91
2023/05/22 05:43:12;;;;;;;66.15;33.42;;;15.30;99.90;;;;;;4982706;28;20073;-91
2023/05/22 05:45:38;;;;;;;50.97;32.28;;;15.30;99.90;;;;;;4982112;28;20548;-92
2023/05/22 05:48:04;;;;;;;46.97;32.22;;;15.30;99.90;;;;;;4983036;28;20026;-91
2023/05/22 05:50:29;;;;;;;53.58;32.17;;;15.30;99.90;;;;;;4978409;28;20157;-92
2023/05/22 05:52:55;;;;;;;56.45;30.77;;;15.40;99.90;;;;;;4986375;28;20026;-92
2023/05/22 05:55:20;;;;;;;50.83;30.83;;;15.40;99.90;;;;;;4980198;28;20038;-92
2023/05/22 05:57:46;;;;;;;46.08;30.00;;;15.40;99.90;;;;;;4991751;28;20022;-91
2023/05/22 06:00:12;;;;;;;53.78;30.10;;;15.50;99.90;;;;;;4993019;28;20018;-90
2023/05/22 06:02:37;;;;;;;46.45;30.23;;;15.50;99.90;;;;;;4981096;28;20027;-91
2023/05/22 06:05:04;;;;;;;54.95;31.45;;;15.50;99.90;;;;;;4982375;28;20041;-92
2023/05/22 06:07:41;;;;;;;56.45;31.27;;;15.50;99.90;;;;;;4971979;28;20042;-91
2023/05/22 06:10:08;;;;;;;49.88;30.05;;;15.60;99.90;;;;;;4977154;28;20027;-90
2023/05/22 06:12:33;;;;;;;50.53;33.05;;;15.60;99.90;;;;;;4996467;28;20022;-90
2023/05/22 06:14:59;;;;;;;44.58;31.05;;;15.50;99.90;;;;;;4976885;28;20483;-91
2023/05/22 06:17:25;;;;;;;48.90;30.92;;;15.60;99.90;;;;;;4977011;28;20018;-91
2023/05/22 06:19:50;;;;;;;45.20;32.92;;;15.60;99.90;;;;;;4976049;28;20399;-90
2023/05/22 06:22:16;;;;;;;54.47;32.47;;;15.60;99.90;;;;;;4974259;28;20041;-91
2023/05/22 06:24:43;;;;;;;47.58;30.92;;;15.70;99.90;;;;;;4970727;28;20022;-91
2023/05/22 06:27:09;;;;;;;52.22;31.98;;;15.70;99.90;;;;;;4988518;28;20042;-91
2023/05/22 06:29:35;;;;;;;58.10;33.00;;;15.70;99.90;;;;;;4983156;28;20027;-91
2023/05/22 06:32:00;;;;;;;61.00;33.13;;;15.80;99.90;;;;;;4976430;28;20033;-92
2023/05/22 06:34:26;;;;;;;51.55;33.17;;;15.80;99.90;;;;;;4985405;28;20056;-92
2023/05/22 06:36:52;;;;;;;48.88;34.47;;;15.90;99.90;;;;;;4988235;28;20049;-92
2023/05/22 06:39:18;;;;;;;59.83;35.67;;;16.00;99.90;;;;;;4981585;28;20054;-92
2023/05/22 06:41:44;;;;;;;48.88;34.15;;;16.00;99.90;;;;;;4967253;28;20037;-92
2023/05/22 06:44:11;;;;;;;52.17;33.15;;;16.10;99.90;;;;;;4977623;28;20114;-91
2023/05/22 06:46:36;;;;;;;48.90;34.17;;;16.10;99.90;;;;;;4979419;28;20027;-92
2023/05/22 06:49:02;;;;;;;46.45;33.72;;;16.10;99.90;;;;;;4991645;28;20091;-92
2023/05/22 06:51:28;;;;;;;49.00;33.55;;;16.30;99.90;;;;;;4977345;28;20026;-91
2023/05/22 06:53:55;;;;;;;45.13;31.58;;;16.40;99.90;;;;;;4987405;28;20464;-92
2023/05/22 06:56:21;;;;;;;44.50;33.58;;;16.40;99.90;;;;;;4964282;28;20022;-92
2023/05/22 06:58:46;;;;;;;46.58;33.83;;;16.60;99.90;;;;;;4981075;28;20037;-92
2023/05/22 07:01:12;;;;;;;48.08;33.35;;;16.70;99.90;;;;;;4969316;28;20379;-91
2023/05/22 07:03:38;;;;;;;45.35;32.88;;;16.80;99.90;;;;;;4987291;28;20033;-92
2023/05/22 07:06:04;;;;;;;42.72;32.03;;;17.00;99.90;;;;;;4990247;28;20018;-91
2023/05/22 07:08:30;;;;;;;42.97;31.48;;;17.10;99.90;;;;;;4987235;28;20121;-91
2023/05/22 07:10:55;;;;;;;46.22;32.80;;;17.10;99.90;;;;;;4983316;28;20123;-92
2023/05/22 07:13:21;;;;;;;44.20;31.42;;;17.20;99.90;;;;;;4979007;28;20055;-91
2023/05/22 07:15:47;;;;;;;44.28;32.33;;;17.30;99.90;;;;;;4974237;28;20035;-91
2023/05/22 07:18:14;;;;;;;44.53;33.53;;;17.40;99.90;;;;;;4978656;28;20032;-87
2023/05/22 07:20:39;;;;;;;46.47;33.80;;;17.50;99.90;;;;;;4972294;28;20114;-87
2023/05/22 07:23:05;;;;;;;46.15;34.53;;;17.60;99.90;;;;;;4978027;28;20105;-87
2023/05/22 07:25:30;;;;;;;51.08;35.33;;;17.80;99.90;;;;;;4993244;28;20015;-87
2023/05/22 07:27:57;;;;;;;48.80;35.45;;;18.00;99.90;;;;;;4987101;28;20025;-85
2023/05/22 07:30:23;;;;;;;43.53;32.50;;;18.00;99.90;;;;;;4980295;28;20022;-86
2023/05/22 07:32:48;;;;;;;45.45;33.38;;;18.10;99.90;;;;;;4981444;28;20030;-87
2023/05/22 07:35:14;;;;;;;45.58;32.72;;;18.30;99.90;;;;;;4977149;28;20054;-85
2023/05/22 07:37:40;;;;;;;49.15;35.50;;;18.30;99.90;;;;;;4977225;28;20058;-85
2023/05/22 07:40:06;;;;;;;44.75;32.97;;;18.40;99.90;;;;;;4976934;28;20088;-85
2023/05/22 07:42:32;;;;;;;48.42;32.40;;;18.50;99.90;;;;;;4987752;28;20057;-86
2023/05/22 07:44:58;;;;;;;49.72;34.35;;;18.60;99.90;;;;;;4966874;28;20027;-85
2023/05/22 07:47:23;;;;;;;48.80;35.40;;;18.70;99.90;;;;;;4963933;28;20120;-86
2023/05/22 07:49:49;;;;;;;51.35;35.90;;;18.80;99.90;;;;;;4981572;28;20054;-85
2023/05/22 07:52:14;;;;;;;51.55;35.60;;;18.90;99.90;;;;;;4984090;28;20088;-84
2023/05/22 07:54:40;;;;;;;49.55;34.03;;;19.00;99.90;;;;;;4994204;28;20037;-85
2023/05/22 07:57:06;;;;;;;41.72;32.30;;;19.10;99.90;;;;;;4987066;28;20114;-85
2023/05/22 07:59:32;;;;;;;49.08;34.17;;;19.20;99.90;;;;;;4980069;28;20491;-88
2023/05/22 08:01:58;;;;;;;47.58;34.60;;;19.20;99.90;;;;;;4981557;28;20026;-86
2023/05/22 08:04:24;;;;;;;46.40;32.40;;;19.20;99.90;;;;;;4977624;28;20025;-86
2023/05/22 08:06:50;;;;;;;44.58;33.85;;;19.20;99.90;;;;;;4974050;28;20109;-87
2023/05/22 08:09:15;;;;;;;48.97;35.88;;;19.30;99.90;;;;;;4972916;28;20103;-87
2023/05/22 08:11:41;;;;;;;47.97;35.15;;;19.30;99.90;;;;;;4969059;28;20029;-87
2023/05/22 08:14:07;;;;;;;44.42;34.70;;;19.30;99.90;;;;;;4973474;28;20133;-87
2023/05/22 08:16:33;;;;;;;45.25;35.08;;;19.40;99.90;;;;;;4988373;28;20120;-87
2023/05/22 08:18:59;;;;;;;46.42;35.50;;;19.40;99.90;;;;;;4983334;28;20023;-87
2023/05/22 08:21:24;;;;;;;49.90;36.20;;;19.30;99.90;;;;;;4987153;28;20064;-87
2023/05/22 08:23:50;;;;;;;45.95;34.08;;;19.30;99.90;;;;;;4969204;28;20442;-86
2023/05/22 08:26:16;;;;;;;44.15;33.55;;;19.30;99.90;;;;;;4970669;28;20022;-87
2023/05/22 08:28:43;;;;;;;45.78;34.55;;;19.40;99.90;;;;;;4979452;28;20034;-87
2023/05/22 08:31:12;;;;;;;52.22;37.08;;;19.50;99.90;;;;;;4969808;28;20029;-88
2023/05/22 08:33:38;;;;;;;41.95;32.95;;;19.80;99.90;;;;;;4978785;28;20550;-87
2023/05/22 08:36:04;;;;;;;45.40;36.03;;;19.90;99.90;;;;;;4974434;28;20034;-87
2023/05/22 08:38:30;;;;;;;44.42;35.08;;;20.00;99.90;;;;;;4977207;28;20478;-87
2023/05/22 08:40:57;;;;;;;42.13;31.65;;;20.10;99.90;;;;;;4980420;28;20117;-87
2023/05/22 08:43:23;;;;;;;44.05;32.55;;;20.20;99.90;;;;;;4976920;28;20026;-88
2023/05/22 08:46:03;;;;;;;38.35;29.85;;;20.40;99.90;;;;;;4975386;28;20475;-87
2023/05/22 08:48:31;;;;;;;38.58;30.40;;;20.50;99.90;;;;;;4986810;28;20041;-88
2023/05/22 08:51:01;;;;;;;44.13;31.80;;;20.50;99.90;;;;;;4988241;28;20500;-88
2023/05/22 08:53:28;;;;;;;44.20;30.20;;;20.50;99.90;;;;;;4980070;28;20427;-87
2023/05/22 08:55:54;;;;;;;38.22;29.70;;;20.40;99.90;;;;;;4984267;28;20061;-88
2023/05/22 08:58:23;;;;;;;43.25;29.88;;;20.40;99.90;;;;;;4974613;28;20493;-87
2023/05/22 09:00:50;;;;;;;46.05;31.48;;;20.30;99.90;;;;;;4985397;28;20494;-88
2023/05/22 09:03:17;;;;;;;46.78;31.55;;;20.20;99.90;;;;;;4991841;28;20062;-87
2023/05/22 09:05:44;;;;;;;42.42;31.25;;;20.00;99.90;;;;;;4960381;28;20033;-88
2023/05/22 09:08:09;;;;;;;42.17;31.33;;;19.90;99.90;;;;;;4976132;28;20037;-87
2023/05/22 09:10:35;;;;;;;49.20;32.30;;;19.90;99.90;;;;;;4975404;28;20039;-87
2023/05/22 09:13:08;;;;;;;46.20;31.40;;;20.00;99.90;;;;;;4992539;28;20029;-87
2023/05/22 09:15:37;;;;;;;42.25;28.90;;;19.90;99.90;;;;;;4963896;28;20042;-87
2023/05/22 09:18:04;;;;;;;47.80;29.92;;;19.90;99.90;;;;;;4985721;28;20034;-87
2023/05/22 09:20:39;;;;;;;46.47;32.03;;;19.90;99.90;;;;;;4982400;28;20585;-88
2023/05/22 09:23:16;;;;;;;51.17;33.97;;;20.00;99.90;;;;;;4986518;28;20034;-87
2023/05/22 09:25:43;;;;;;;54.15;36.88;;;20.20;99.90;;;;;;4979458;28;20132;-87
2023/05/22 09:28:11;;;;;;;56.85;35.35;;;20.30;99.90;;;;;;4991376;28;20022;-87
2023/05/22 09:30:36;;;;;;;58.13;34.92;;;20.40;99.90;;;;;;4973212;28;20084;-88
2023/05/22 09:33:03;;;;;;;50.95;34.55;;;20.50;99.90;;;;;;4970995;28;20070;-87
2023/05/22 09:35:34;;;;;;;54.17;34.85;;;20.70;99.90;;;;;;4989959;28;20049;-88
2023/05/22 09:37:59;;;;;;;52.05;34.78;;;20.90;99.90;;;;;;4990337;28;20069;-87
2023/05/22 09:40:28;;;;;;;53.38;35.10;;;21.10;99.90;;;;;;4987559;28;20433;-87
2023/05/22 09:42:53;;;;;;;52.60;35.25;;;21.30;99.90;;;;;;4991475;28;20022;-87
2023/05/22 09:45:22;;;;;;;49.78;34.90;;;21.40;99.90;;;;;;4971167;28;20051;-87
2023/05/22 09:47:49;;;;;;;50.97;35.97;;;21.50;99.90;;;;;;4978522;28;20475;-86
2023/05/22 09:50:14;;;;;;;54.15;37.03;;;21.40;99.90;;;;;;4980777;28;20038;-87
2023/05/22 09:52:43;;;;;;;49.63;35.47;;;21.40;99.90;;;;;;4980702;28;20086;-87
2023/05/22 09:55:12;;;;;;;46.70;35.83;;;21.30;99.90;;;;;;4972965;28;20042;-87
2023/05/22 09:57:44;;;;;;;50.70;35.90;;;21.40;99.90;;;;;;4984969;28;20525;-87
2023/05/22 10:00:17;;;;;;;;;;;21.40;99.90;;;;;;4978161;28;20033;-87
2023/05/22 10:02:49;;;;;;;49.20;33.83;;;21.40;99.90;;;;;;4981650;28;19996;-88
2023/05/22 10:05:20;;;;;;;53.03;36.63;;;21.50;99.90;;;;;;4972083;28;20373;-87
2023/05/22 10:07:49;;;;;;;49.17;36.25;;;21.60;99.90;;;;;;4979243;28;20025;-87
2023/05/22 10:10:23;;;;;;;53.72;35.70;;;21.70;99.90;;;;;;4993546;28;20378;-88
2023/05/22 10:12:55;;;;;;;45.00;33.90;;;21.80;99.90;;;;;;4978746;28;20121;-88
2023/05/22 10:15:21;;;;;;;49.88;34.70;;;22.00;99.90;;;;;;4993028;28;20037;-86
2023/05/22 10:17:47;;;;;;;49.65;34.97;;;22.10;99.90;;;;;;4978536;28;20475;-87
2023/05/22 10:20:13;;;;;;;46.47;33.30;;;22.10;99.90;;;;;;4976167;28;20169;-87
2023/05/22 10:22:42;;;;;;;51.33;36.45;;;22.20;99.90;;;;;;4978394;28;20030;-88
2023/05/22 10:25:09;;;;;;;50.28;34.60;;;22.30;99.90;;;;;;4969347;28;20543;-88
2023/05/22 10:27:35;;;;;;;47.17;33.97;;;22.40;99.90;;;;;;4984482;28;20101;-87
2023/05/22 10:30:23;;;;;;;52.90;36.08;;;22.40;99.90;;;;;;4986061;28;20033;-87
2023/05/22 10:33:18;;;;;;;48.53;35.40;;;22.40;99.90;;;;;;4975098;28;20114;-88
2023/05/22 10:35:55;;;;;;;48.00;35.50;;;22.50;99.90;;;;;;4988291;28;20054;-88
2023/05/22 10:38:48;;;;;;;50.13;35.80;;;22.60;99.90;;;;;;4978117;28;20084;-87
2023/05/22 10:41:15;;;;;;;44.13;31.90;;;22.60;99.90;;;;;;4972111;28;20030;-86
2023/05/22 10:43:45;;;;;;;43.88;33.67;;;22.60;99.90;;;;;;4995977;28;20125;-86
2023/05/22 10:46:11;;;;;;;43.80;31.77;;;22.70;99.90;;;;;;4975605;28;20030;-87
2023/05/22 10:48:48;;;;;;;41.15;32.72;;;22.80;99.90;;;;;;4978372;28;20030;-87
2023/05/22 10:51:18;;;;;;;44.42;33.38;;;23.00;99.90;;;;;;4983288;28;20034;-86
2023/05/22 10:53:46;;;;;;;38.13;30.48;;;23.20;99.90;;;;;;4974330;28;20061;-86
2023/05/22 10:56:13;;;;;;;39.63;30.45;;;23.30;99.90;;;;;;5002728;28;20166;-86
2023/05/22 10:58:43;;;;;;;41.95;31.83;;;23.40;99.90;;;;;;4976213;28;20022;-88
2023/05/22 11:01:15;;;;;;;41.78;28.98;;;23.50;99.90;;;;;;4985050;28;20116;-87
2023/05/22 11:03:57;;;;;;;36.97;28.55;;;23.60;99.90;;;;;;4990432;28;20022;-87
2023/05/22 11:07:00;;;;;;;37.33;28.02;;;23.60;99.90;;;;;;4972849;28;20124;-86
2023/05/22 11:09:42;;;;;;;39.00;28.80;;;23.60;99.90;;;;;;4984837;28;20212;-87
2023/05/22 11:12:20;;;;;;;31.77;24.63;;;23.70;99.90;;;;;;4976006;28;20062;-88
2023/05/22 11:14:57;;;;;;;36.42;28.15;;;23.80;99.90;;;;;;4972413;28;20137;-88
2023/05/22 11:17:30;;;;;;;32.63;25.85;;;23.90;99.90;;;;;;4978953;28;20129;-87
2023/05/22 11:20:02;;;;;;;35.42;28.67;;;24.00;99.90;;;;;;4987702;28;20026;-87
2023/05/22 11:22:33;;;;;;;;;;;24.10;99.90;;;;;;4968501;28;20033;-86
2023/05/22 11:25:02;;;;;;;33.30;25.70;;;24.00;99.90;;;;;;4994834;28;20022;-87
2023/05/22 11:27:28;;;;;;;40.78;26.55;;;24.10;99.90;;;;;;4970623;28;20073;-86
2023/05/22 11:29:55;;;;;;;33.45;27.80;;;24.10;99.90;;;;;;4976171;28;20050;-87
2023/05/22 11:32:22;;;;;;;37.08;27.33;;;24.10;99.90;;;;;;4973856;28;20491;-87
2023/05/22 11:34:49;;;;;;;35.45;26.77;;;24.20;99.90;;;;;;4972373;28;20137;-86
2023/05/22 11:37:17;;;;;;;34.05;26.80;;;24.20;99.90;;;;;;4975695;28;20028;-87
2023/05/22 11:39:55;;;;;;;30.45;24.50;;;24.30;99.90;;;;;;4973927;28;20029;-85
2023/05/22 11:42:21;;;;;;;32.78;26.05;;;24.30;99.90;;;;;;4965763;28;20030;-92
2023/05/22 11:44:47;;;;;;;32.50;25.35;;;24.40;99.90;;;;;;4970451;28;20089;-91
2023/05/22 11:47:13;;;;;;;31.60;23.38;;;24.50;99.90;;;;;;4970788;28;20029;-92
2023/05/22 11:49:41;;;;;;;29.85;24.45;;;24.50;99.90;;;;;;4973308;28;20065;-86
2023/05/22 11:52:07;;;;;;;34.63;25.45;;;24.70;99.90;;;;;;4977404;28;20121;-86
2023/05/22 11:54:32;;;;;;;34.25;26.10;;;24.70;99.90;;;;;;4976669;28;20506;-86
2023/05/22 11:56:58;;;;;;;29.20;23.83;;;24.70;99.90;;;;;;4966589;28;20034;-85
2023/05/22 11:59:23;;;;;;;32.55;25.05;;;24.80;99.90;;;;;;4971462;28;20104;-87
2023/05/22 12:01:52;;;;;;;28.13;22.58;;;24.90;99.90;;;;;;4967472;28;20026;-87
2023/05/22 12:04:17;;;;;;;32.17;24.67;;;25.00;99.90;;;;;;4970764;28;20033;-87
2023/05/22 12:06:43;;;;;;;32.72;25.38;;;25.10;99.90;;;;;;4961419;28;20126;-89
2023/05/22 12:09:09;;;;;;;25.48;21.65;;;25.10;99.90;;;;;;4968712;28;20068;-89
2023/05/22 12:11:36;;;;;;;30.48;23.73;;;25.10;99.90;;;;;;4976660;28;20034;-89
2023/05/22 12:14:05;;;;;;;28.00;21.73;;;25.20;99.90;;;;;;4969400;28;20039;-92
2023/05/22 12:16:35;;;;;;;29.40;23.50;;;25.30;99.90;;;;;;4972522;28;20088;-91
2023/05/22 12:19:08;;;;;;;31.20;24.15;;;25.40;99.90;;;;;;4972207;28;20027;-90
2023/05/22 12:21:37;;;;;;;28.98;23.38;;;25.40;99.90;;;;;;4973108;28;20487;-91
2023/05/22 12:24:03;;;;;;;32.25;26.13;;;25.50;99.90;;;;;;4975021;28;20034;-92
2023/05/22 12:26:30;;;;;;;31.17;24.17;;;25.60;99.90;;;;;;4971341;28;20023;-92
2023/05/22 12:28:57;;;;;;;24.02;21.15;;;25.70;99.90;;;;;;4965581;28;20094;-92
2023/05/22 12:31:23;;;;;;;27.95;21.90;;;25.80;99.90;;;;;;4975164;28;20501;-86